sensor_id;sensor_type;location;lat;lon;timestamp;noise_LAeq;noise_LA_min;noise_LA_max;noise_LA01;noise_LA95
37163;Laerm;23057;48.554;14.454;2022-08-04T00:01:44;42.08;38.67;47.95;;
37163;Laerm;23057;48.554;14.454;2022-08-04T00:04:59;41.67;38.05;44.11;;
37163;Laerm;23057;48.554;14.454;2022-08-04T00:07:41;41.24;37.70;43.68;;
37163;Laerm;23057;48.554;14.454;2022-08-04T00:10:17;46.12;38.52;61.98;;
37163;Laerm;23057;48.554;14.454;2022-08-04T00:12:51;41.87;37.52;44.39;;
37163;Laerm;23057;48.554;14.454;2022-08-04T00:15:25;51.02;38.37;65.66;;
37163;Laerm;23057;48.554;14.454;2022-08-04T00:18:04;44.70;37.70;59.13;;
37163;Laerm;23057;48.554;14.454;2022-08-04T00:20:38;40.62;35.36;43.09;;
37163;Laerm;23057;48.554;14.454;2022-08-04T00:23:12;41.67;38.05;45.04;;
37163;Laerm;23057;48.554;14.454;2022-08-04T00:25:44;42.25;38.37;45.27;;
37163;Laerm;23057;48.554;14.454;2022-08-04T00:28:15;42.13;38.81;44.87;;
37163;Laerm;23057;48.554;14.454;2022-08-04T00:30:47;42.44;37.12;52.62;;
37163;Laerm;23057;48.554;14.454;2022-08-04T00:33:18;43.94;38.81;57.72;;
37163;Laerm;23057;48.554;14.454;2022-08-04T00:35:50;42.19;38.21;47.98;;
37163;Laerm;23057;48.554;14.454;2022-08-04T00:38:22;45.31;38.95;59.16;;
37163;Laerm;23057;48.554;14.454;2022-08-04T00:47:03;42.71;39.08;50.38;;
37163;Laerm;23057;48.554;14.454;2022-08-04T00:58:28;41.99;37.70;48.92;;
37163;Laerm;23057;48.554;14.454;2022-08-04T01:07:21;48.09;37.52;63.63;;
37163;Laerm;23057;48.554;14.454;2022-08-04T01:10:09;42.04;37.88;49.25;;
37163;Laerm;23057;48.554;14.454;2022-08-04T01:18:47;41.69;38.52;44.76;;
37163;Laerm;23057;48.554;14.454;2022-08-04T01:24:28;41.66;37.52;46.40;;
37163;Laerm;23057;48.554;14.454;2022-08-04T01:27:08;42.41;38.95;46.13;;
37163;Laerm;23057;48.554;14.454;2022-08-04T01:29:49;43.85;38.67;56.61;;
37163;Laerm;23057;48.554;14.454;2022-08-04T01:33:08;45.58;37.88;62.24;;
37163;Laerm;23057;48.554;14.454;2022-08-04T01:35:49;42.34;39.08;45.51;;
37163;Laerm;23057;48.554;14.454;2022-08-04T01:38:29;44.75;39.81;59.22;;
37163;Laerm;23057;48.554;14.454;2022-08-04T01:41:06;42.60;39.08;45.36;;
37163;Laerm;23057;48.554;14.454;2022-08-04T01:43:43;44.39;39.92;55.22;;
37163;Laerm;23057;48.554;14.454;2022-08-04T01:46:16;50.59;40.62;63.82;;
37163;Laerm;23057;48.554;14.454;2022-08-04T01:48:52;48.28;37.52;62.92;;
37163;Laerm;23057;48.554;14.454;2022-08-04T01:51:24;43.21;39.46;47.65;;
37163;Laerm;23057;48.554;14.454;2022-08-04T01:53:55;50.53;40.23;63.53;;
37163;Laerm;23057;48.554;14.454;2022-08-04T01:56:27;45.37;38.81;59.78;;
37163;Laerm;23057;48.554;14.454;2022-08-04T01:59:02;42.46;38.95;56.68;;
37163;Laerm;23057;48.554;14.454;2022-08-04T02:01:35;41.51;38.37;47.81;;
37163;Laerm;23057;48.554;14.454;2022-08-04T02:04:06;45.12;39.08;61.01;;
37163;Laerm;23057;48.554;14.454;2022-08-04T02:07:00;43.03;38.95;46.64;;
37163;Laerm;23057;48.554;14.454;2022-08-04T02:09:52;42.76;39.34;46.91;;
37163;Laerm;23057;48.554;14.454;2022-08-04T02:16:07;51.28;39.70;66.46;;
37163;Laerm;23057;48.554;14.454;2022-08-04T02:21:50;47.54;38.81;63.99;;
37163;Laerm;23057;48.554;14.454;2022-08-04T02:24:29;42.26;38.95;46.48;;
37163;Laerm;23057;48.554;14.454;2022-08-04T02:27:03;46.26;39.70;62.20;;
37163;Laerm;23057;48.554;14.454;2022-08-04T02:29:58;46.48;39.34;61.77;;
37163;Laerm;23057;48.554;14.454;2022-08-04T02:32:35;50.85;42.82;64.74;;
37163;Laerm;23057;48.554;14.454;2022-08-04T02:35:25;51.74;39.70;71.75;;
37163;Laerm;23057;48.554;14.454;2022-08-04T02:39:11;51.80;39.81;66.28;;
37163;Laerm;23057;48.554;14.454;2022-08-04T02:41:26;53.35;40.23;70.69;;
37163;Laerm;23057;48.554;14.454;2022-08-04T02:44:01;47.58;40.13;64.45;;
37163;Laerm;23057;48.554;14.454;2022-08-04T02:46:34;46.09;41.22;61.37;;
37163;Laerm;23057;48.554;14.454;2022-08-04T02:49:08;47.45;41.14;72.03;;
37163;Laerm;23057;48.554;14.454;2022-08-04T02:51:44;52.63;39.92;69.34;;
37163;Laerm;23057;48.554;14.454;2022-08-04T02:54:24;51.40;41.38;66.19;;
37163;Laerm;23057;48.554;14.454;2022-08-04T02:56:56;46.88;40.71;63.21;;
37163;Laerm;23057;48.554;14.454;2022-08-04T03:02:39;51.63;40.53;66.68;;
37163;Laerm;23057;48.554;14.454;2022-08-04T03:05:57;47.23;40.89;61.18;;
37163;Laerm;23057;48.554;14.454;2022-08-04T03:25:21;47.77;41.30;64.92;;
37163;Laerm;23057;48.554;14.454;2022-08-04T03:28:06;55.93;41.75;71.92;;
37163;Laerm;23057;48.554;14.454;2022-08-04T03:43:11;52.74;41.38;66.04;;
37163;Laerm;23057;48.554;14.454;2022-08-04T03:59:14;49.34;41.53;64.70;;
37163;Laerm;23057;48.554;14.454;2022-08-04T04:08:33;54.94;42.41;71.58;;
37163;Laerm;23057;48.554;14.454;2022-08-04T04:23:14;53.65;42.47;67.89;;
37163;Laerm;23057;48.554;14.454;2022-08-04T04:26:39;54.91;42.88;71.63;;
37163;Laerm;23057;48.554;14.454;2022-08-04T04:32:55;51.99;43.77;66.32;;
37163;Laerm;23057;48.554;14.454;2022-08-04T04:35:40;52.10;42.93;62.63;;
37163;Laerm;23057;48.554;14.454;2022-08-04T04:44:28;54.11;42.41;68.34;;
37163;Laerm;23057;48.554;14.454;2022-08-04T04:47:14;50.97;42.65;63.95;;
37163;Laerm;23057;48.554;14.454;2022-08-04T04:50:03;53.98;43.34;65.46;;
37163;Laerm;23057;48.554;14.454;2022-08-04T04:55:25;57.81;42.71;75.34;;
37163;Laerm;23057;48.554;14.454;2022-08-04T04:57:59;53.79;41.96;70.36;;
37163;Laerm;23057;48.554;14.454;2022-08-04T05:01:36;50.65;42.59;65.04;;
37163;Laerm;23057;48.554;14.454;2022-08-04T05:13:59;48.96;41.75;64.89;;
37163;Laerm;23057;48.554;14.454;2022-08-04T05:16:39;56.80;41.75;70.81;;
37163;Laerm;23057;48.554;14.454;2022-08-04T05:19:49;49.60;41.96;63.62;;
37163;Laerm;23057;48.554;14.454;2022-08-04T05:22:38;49.00;43.49;62.19;;
37163;Laerm;23057;48.554;14.454;2022-08-04T05:25:22;53.39;42.76;69.06;;
37163;Laerm;23057;48.554;14.454;2022-08-04T05:28:24;51.80;41.61;64.63;;
37163;Laerm;23057;48.554;14.454;2022-08-04T05:31:02;50.57;41.30;63.84;;
37163;Laerm;23057;48.554;14.454;2022-08-04T05:34:06;54.56;42.59;70.96;;
37163;Laerm;23057;48.554;14.454;2022-08-04T05:36:52;56.48;43.09;72.11;;
37163;Laerm;23057;48.554;14.454;2022-08-04T05:39:46;53.46;41.61;67.92;;
37163;Laerm;23057;48.554;14.454;2022-08-04T05:42:18;56.21;41.96;72.92;;
37163;Laerm;23057;48.554;14.454;2022-08-04T05:44:50;57.36;43.24;72.78;;
37163;Laerm;23057;48.554;14.454;2022-08-04T05:47:23;47.62;40.53;66.17;;
37163;Laerm;23057;48.554;14.454;2022-08-04T05:49:57;49.27;41.30;62.81;;
37163;Laerm;23057;48.554;14.454;2022-08-04T05:52:30;52.40;41.68;68.26;;
37163;Laerm;23057;48.554;14.454;2022-08-04T05:55:03;53.87;42.53;70.09;;
37163;Laerm;23057;48.554;14.454;2022-08-04T05:57:39;49.80;41.30;62.28;;
37163;Laerm;23057;48.554;14.454;2022-08-04T06:00:11;51.79;41.96;64.36;;
37163;Laerm;23057;48.554;14.454;2022-08-04T06:02:45;44.79;40.98;51.90;;
37163;Laerm;23057;48.554;14.454;2022-08-04T06:05:17;49.46;42.09;63.31;;
37163;Laerm;23057;48.554;14.454;2022-08-04T06:07:49;50.84;40.89;64.58;;
37163;Laerm;23057;48.554;14.454;2022-08-04T06:10:20;56.18;42.71;70.81;;
37163;Laerm;23057;48.554;14.454;2022-08-04T06:13:02;51.38;42.82;66.37;;
37163;Laerm;23057;48.554;14.454;2022-08-04T06:15:40;52.24;41.96;68.19;;
37163;Laerm;23057;48.554;14.454;2022-08-04T06:18:13;56.21;42.82;68.37;;
37163;Laerm;23057;48.554;14.454;2022-08-04T06:20:46;58.07;42.59;77.60;;
37163;Laerm;23057;48.554;14.454;2022-08-04T06:23:22;51.34;42.71;65.55;;
37163;Laerm;23057;48.554;14.454;2022-08-04T06:25:59;54.65;42.93;70.34;;
37163;Laerm;23057;48.554;14.454;2022-08-04T06:28:31;55.45;43.49;73.24;;
37163;Laerm;23057;48.554;14.454;2022-08-04T06:31:03;49.28;41.89;62.56;;
37163;Laerm;23057;48.554;14.454;2022-08-04T06:33:37;55.54;42.47;71.49;;
37163;Laerm;23057;48.554;14.454;2022-08-04T06:36:09;48.57;40.98;64.63;;
37163;Laerm;23057;48.554;14.454;2022-08-04T06:38:42;55.58;41.75;73.16;;
37163;Laerm;23057;48.554;14.454;2022-08-04T06:41:13;47.89;41.61;60.59;;
37163;Laerm;23057;48.554;14.454;2022-08-04T06:43:45;54.04;42.41;69.99;;
37163;Laerm;23057;48.554;14.454;2022-08-04T06:46:17;54.50;41.61;64.20;;
37163;Laerm;23057;48.554;14.454;2022-08-04T06:48:50;52.66;41.75;62.53;;
37163;Laerm;23057;48.554;14.454;2022-08-04T06:51:22;52.44;42.47;63.95;;
37163;Laerm;23057;48.554;14.454;2022-08-04T06:53:53;58.35;43.94;72.39;;
37163;Laerm;23057;48.554;14.454;2022-08-04T06:56:25;52.33;42.76;65.12;;
37163;Laerm;23057;48.554;14.454;2022-08-04T06:59:01;56.85;40.53;72.02;;
37163;Laerm;23057;48.554;14.454;2022-08-04T07:01:35;50.97;41.89;66.66;;
37163;Laerm;23057;48.554;14.454;2022-08-04T07:04:07;50.54;41.68;70.21;;
37163;Laerm;23057;48.554;14.454;2022-08-04T07:06:38;61.13;41.46;77.35;;
37163;Laerm;23057;48.554;14.454;2022-08-04T07:09:09;50.38;41.38;63.71;;
37163;Laerm;23057;48.554;14.454;2022-08-04T07:11:40;55.80;40.89;70.37;;
37163;Laerm;23057;48.554;14.454;2022-08-04T07:14:12;60.84;40.43;79.78;;
37163;Laerm;23057;48.554;14.454;2022-08-04T07:16:45;52.12;40.71;68.96;;
37163;Laerm;23057;48.554;14.454;2022-08-04T07:19:18;52.48;40.23;69.95;;
37163;Laerm;23057;48.554;14.454;2022-08-04T07:21:49;55.44;40.03;73.54;;
37163;Laerm;23057;48.554;14.454;2022-08-04T07:24:31;50.19;40.23;69.11;;
37163;Laerm;23057;48.554;14.454;2022-08-04T07:27:04;53.25;40.33;69.88;;
37163;Laerm;23057;48.554;14.454;2022-08-04T07:29:36;47.63;38.81;64.60;;
37163;Laerm;23057;48.554;14.454;2022-08-04T07:32:08;58.98;41.06;75.52;;
37163;Laerm;23057;48.554;14.454;2022-08-04T07:34:41;50.87;39.34;66.31;;
37163;Laerm;23057;48.554;14.454;2022-08-04T07:37:12;52.47;41.30;70.30;;
37163;Laerm;23057;48.554;14.454;2022-08-04T07:39:43;54.29;41.30;69.20;;
37163;Laerm;23057;48.554;14.454;2022-08-04T07:42:18;53.25;40.80;65.55;;
37163;Laerm;23057;48.554;14.454;2022-08-04T07:44:49;56.15;39.34;71.34;;
37163;Laerm;23057;48.554;14.454;2022-08-04T07:47:21;51.15;40.53;65.78;;
37163;Laerm;23057;48.554;14.454;2022-08-04T07:49:53;49.03;39.58;63.61;;
37163;Laerm;23057;48.554;14.454;2022-08-04T07:52:26;50.83;37.70;68.21;;
37163;Laerm;23057;48.554;14.454;2022-08-04T07:54:59;53.20;38.67;68.65;;
37163;Laerm;23057;48.554;14.454;2022-08-04T07:57:30;57.80;40.13;73.06;;
37163;Laerm;23057;48.554;14.454;2022-08-04T08:00:03;52.11;40.33;64.49;;
37163;Laerm;23057;48.554;14.454;2022-08-04T08:02:35;48.68;39.46;63.05;;
37163;Laerm;23057;48.554;14.454;2022-08-04T08:05:13;51.76;39.70;63.70;;
37163;Laerm;23057;48.554;14.454;2022-08-04T08:07:50;53.64;40.80;68.57;;
37163;Laerm;23057;48.554;14.454;2022-08-04T08:10:23;48.54;40.13;63.43;;
37163;Laerm;23057;48.554;14.454;2022-08-04T08:12:55;50.20;39.46;64.11;;
37163;Laerm;23057;48.554;14.454;2022-08-04T08:15:26;53.46;40.13;69.92;;
37163;Laerm;23057;48.554;14.454;2022-08-04T08:17:58;49.60;39.70;61.45;;
37163;Laerm;23057;48.554;14.454;2022-08-04T08:20:30;47.72;39.70;68.86;;
37163;Laerm;23057;48.554;14.454;2022-08-04T08:23:02;50.13;40.33;70.62;;
37163;Laerm;23057;48.554;14.454;2022-08-04T08:25:34;61.86;41.38;78.35;;
37163;Laerm;23057;48.554;14.454;2022-08-04T08:28:06;54.57;40.03;69.97;;
37163;Laerm;23057;48.554;14.454;2022-08-04T08:30:37;54.68;39.46;70.26;;
37163;Laerm;23057;48.554;14.454;2022-08-04T08:33:13;55.14;38.95;73.17;;
37163;Laerm;23057;48.554;14.454;2022-08-04T08:36:03;51.46;37.52;63.27;;
37163;Laerm;23057;48.554;14.454;2022-08-04T08:38:57;49.57;39.46;63.47;;
37163;Laerm;23057;48.554;14.454;2022-08-04T08:44:55;49.73;42.16;62.97;;
37163;Laerm;23057;48.554;14.454;2022-08-04T08:50:57;53.21;43.24;65.92;;
37163;Laerm;23057;48.554;14.454;2022-08-04T08:57:10;54.80;43.19;69.83;;
37163;Laerm;23057;48.554;14.454;2022-08-04T09:03:31;53.98;42.59;70.59;;
37163;Laerm;23057;48.554;14.454;2022-08-04T09:06:57;51.87;43.49;66.09;;
37163;Laerm;23057;48.554;14.454;2022-08-04T09:15:33;53.22;42.93;70.72;;
37163;Laerm;23057;48.554;14.454;2022-08-04T09:18:30;52.28;43.58;71.49;;
37163;Laerm;23057;48.554;14.454;2022-08-04T09:21:17;56.44;42.98;71.95;;
37163;Laerm;23057;48.554;14.454;2022-08-04T09:24:24;50.98;42.93;63.86;;
37163;Laerm;23057;48.554;14.454;2022-08-04T09:27:11;52.82;43.68;62.54;;
37163;Laerm;23057;48.554;14.454;2022-08-04T09:35:47;55.32;43.19;67.99;;
37163;Laerm;23057;48.554;14.454;2022-08-04T09:38:37;50.06;43.19;62.75;;
37163;Laerm;23057;48.554;14.454;2022-08-04T09:47:46;51.15;43.39;64.33;;
37163;Laerm;23057;48.554;14.454;2022-08-04T09:50:36;57.38;42.82;73.17;;
37163;Laerm;23057;48.554;14.454;2022-08-04T09:53:45;52.83;43.19;68.30;;
37163;Laerm;23057;48.554;14.454;2022-08-04T09:56:34;54.45;42.93;68.24;;
37163;Laerm;23057;48.554;14.454;2022-08-04T09:59:21;49.02;42.59;63.44;;
37163;Laerm;23057;48.554;14.454;2022-08-04T10:01:58;49.81;42.98;61.64;;
37163;Laerm;23057;48.554;14.454;2022-08-04T10:04:36;48.75;42.79;62.13;;
37163;Laerm;23057;48.554;14.454;2022-08-04T10:10:39;51.14;43.39;62.92;;
37163;Laerm;23057;48.554;14.454;2022-08-04T10:13:22;57.24;43.86;71.56;;
37163;Laerm;23057;48.554;14.454;2022-08-04T10:19:25;53.63;43.34;68.50;;
37163;Laerm;23057;48.554;14.454;2022-08-04T10:25:33;48.93;43.14;64.06;;
37163;Laerm;23057;48.554;14.454;2022-08-04T10:28:14;51.84;43.19;64.59;;
37163;Laerm;23057;48.554;14.454;2022-08-04T10:30:54;53.12;44.31;68.11;;
37163;Laerm;23057;48.554;14.454;2022-08-04T10:33:32;49.90;43.81;61.21;;
37163;Laerm;23057;48.554;14.454;2022-08-04T10:36:08;59.56;44.31;74.41;;
37163;Laerm;23057;48.554;14.454;2022-08-04T10:38:51;55.09;43.54;74.08;;
37163;Laerm;23057;48.554;14.454;2022-08-04T10:41:39;53.25;45.57;63.87;;
37163;Laerm;23057;48.554;14.454;2022-08-04T10:44:31;52.11;43.81;64.91;;
37163;Laerm;23057;48.554;14.454;2022-08-04T10:47:16;51.15;43.54;63.74;;
37163;Laerm;23057;48.554;14.454;2022-08-04T10:50:00;57.06;43.09;75.74;;
37163;Laerm;23057;48.554;14.454;2022-08-04T10:52:44;54.50;43.72;69.41;;
37163;Laerm;23057;48.554;14.454;2022-08-04T10:55:30;49.05;43.72;63.06;;
37163;Laerm;23057;48.554;14.454;2022-08-04T10:58:05;50.14;44.03;63.65;;
37163;Laerm;23057;48.554;14.454;2022-08-04T11:00:42;52.76;44.23;68.65;;
37163;Laerm;23057;48.554;14.454;2022-08-04T11:03:27;55.20;43.77;69.08;;
37163;Laerm;23057;48.554;14.454;2022-08-04T11:06:00;50.60;43.44;67.18;;
37163;Laerm;23057;48.554;14.454;2022-08-04T11:08:36;49.64;43.19;65.44;;
37163;Laerm;23057;48.554;14.454;2022-08-04T11:14:12;49.83;43.09;63.10;;
37163;Laerm;23057;48.554;14.454;2022-08-04T11:16:52;50.22;44.07;62.80;;
37163;Laerm;23057;48.554;14.454;2022-08-04T11:20:10;51.51;43.81;65.15;;
37163;Laerm;23057;48.554;14.454;2022-08-04T11:23:02;55.26;43.44;68.57;;
37163;Laerm;23057;48.554;14.454;2022-08-04T11:25:52;50.46;43.09;64.48;;
37163;Laerm;23057;48.554;14.454;2022-08-04T11:28:49;50.07;43.54;63.62;;
37163;Laerm;23057;48.554;14.454;2022-08-04T11:31:30;49.06;43.14;62.14;;
37163;Laerm;23057;48.554;14.454;2022-08-04T11:34:22;53.26;43.39;65.41;;
37163;Laerm;23057;48.554;14.454;2022-08-04T11:37:25;53.91;43.09;68.60;;
37163;Laerm;23057;48.554;14.454;2022-08-04T11:40:06;50.84;43.14;64.37;;
37163;Laerm;23057;48.554;14.454;2022-08-04T11:42:51;50.51;43.34;61.89;;
37163;Laerm;23057;48.554;14.454;2022-08-04T11:45:38;51.42;42.35;66.67;;
37163;Laerm;23057;48.554;14.454;2022-08-04T11:48:31;53.24;42.98;67.47;;
37163;Laerm;23057;48.554;14.454;2022-08-04T11:51:06;56.87;43.19;75.38;;
37163;Laerm;23057;48.554;14.454;2022-08-04T11:53:41;51.95;42.76;65.09;;
37163;Laerm;23057;48.554;14.454;2022-08-04T11:56:14;54.16;42.76;70.78;;
37163;Laerm;23057;48.554;14.454;2022-08-04T11:58:45;52.97;43.09;65.67;;
37163;Laerm;23057;48.554;14.454;2022-08-04T12:01:34;47.46;42.82;59.32;;
37163;Laerm;23057;48.554;14.454;2022-08-04T12:11:08;55.04;42.76;69.21;;
37163;Laerm;23057;48.554;14.454;2022-08-04T12:13:58;54.36;43.24;69.85;;
37163;Laerm;23057;48.554;14.454;2022-08-04T12:17:04;50.01;42.29;64.08;;
37163;Laerm;23057;48.554;14.454;2022-08-04T12:19:54;50.52;42.71;63.53;;
37163;Laerm;23057;48.554;14.454;2022-08-04T12:22:33;51.67;42.35;66.57;;
37163;Laerm;23057;48.554;14.454;2022-08-04T12:25:08;48.73;43.04;62.50;;
37163;Laerm;23057;48.554;14.454;2022-08-04T12:28:34;50.36;42.47;64.65;;
37163;Laerm;23057;48.554;14.454;2022-08-04T12:30:48;50.55;42.29;66.88;;
37163;Laerm;23057;48.554;14.454;2022-08-04T12:33:27;53.69;43.05;67.74;;
37163;Laerm;23057;48.554;14.454;2022-08-04T12:36:45;50.45;42.76;65.07;;
37163;Laerm;23057;48.554;14.454;2022-08-04T12:39:22;52.10;42.88;68.30;;
37163;Laerm;23057;48.554;14.454;2022-08-04T12:42:02;55.96;42.22;71.47;;
37163;Laerm;23057;48.554;14.454;2022-08-04T12:44:41;53.11;42.41;69.50;;
37163;Laerm;23057;48.554;14.454;2022-08-04T12:47:14;52.53;43.44;67.19;;
37163;Laerm;23057;48.554;14.454;2022-08-04T12:49:47;53.34;42.85;66.25;;
37163;Laerm;23057;48.554;14.454;2022-08-04T12:52:19;50.50;42.65;67.07;;
37163;Laerm;23057;48.554;14.454;2022-08-04T12:54:53;52.68;42.98;67.95;;
37163;Laerm;23057;48.554;14.454;2022-08-04T12:57:26;50.88;43.44;67.81;;
37163;Laerm;23057;48.554;14.454;2022-08-04T12:59:57;50.98;42.41;66.25;;
37163;Laerm;23057;48.554;14.454;2022-08-04T13:02:38;57.60;42.88;76.33;;
37163;Laerm;23057;48.554;14.454;2022-08-04T13:05:13;50.61;43.19;63.92;;
37163;Laerm;23057;48.554;14.454;2022-08-04T13:07:49;50.84;42.09;63.38;;
37163;Laerm;23057;48.554;14.454;2022-08-04T13:10:23;53.23;42.88;68.52;;
37163;Laerm;23057;48.554;14.454;2022-08-04T13:12:59;47.07;42.03;63.28;;
37163;Laerm;23057;48.554;14.454;2022-08-04T13:15:30;53.29;42.71;68.92;;
37163;Laerm;23057;48.554;14.454;2022-08-04T13:18:08;49.64;42.22;66.08;;
37163;Laerm;23057;48.554;14.454;2022-08-04T13:20:40;54.21;42.82;68.46;;
37163;Laerm;23057;48.554;14.454;2022-08-04T13:23:15;51.84;42.59;68.41;;
37163;Laerm;23057;48.554;14.454;2022-08-04T13:25:50;50.49;42.65;66.52;;
37163;Laerm;23057;48.554;14.454;2022-08-04T13:28:26;50.91;42.35;63.79;;
37163;Laerm;23057;48.554;14.454;2022-08-04T13:31:05;51.03;42.30;65.14;;
37163;Laerm;23057;48.554;14.454;2022-08-04T13:33:42;52.78;41.75;67.35;;
37163;Laerm;23057;48.554;14.454;2022-08-04T13:36:15;55.64;42.71;72.07;;
37163;Laerm;23057;48.554;14.454;2022-08-04T13:38:57;52.27;42.71;66.77;;
37163;Laerm;23057;48.554;14.454;2022-08-04T13:41:29;51.28;42.88;61.91;;
37163;Laerm;23057;48.554;14.454;2022-08-04T13:44:04;54.42;43.24;66.99;;
37163;Laerm;23057;48.554;14.454;2022-08-04T13:46:46;49.95;42.59;64.73;;
37163;Laerm;23057;48.554;14.454;2022-08-04T13:49:19;47.42;42.41;59.90;;
37163;Laerm;23057;48.554;14.454;2022-08-04T13:51:54;51.48;42.22;66.49;;
37163;Laerm;23057;48.554;14.454;2022-08-04T13:54:39;55.60;42.53;69.36;;
37163;Laerm;23057;48.554;14.454;2022-08-04T13:57:35;53.55;43.14;64.72;;
37163;Laerm;23057;48.554;14.454;2022-08-04T14:00:13;50.88;42.09;63.19;;
37163;Laerm;23057;48.554;14.454;2022-08-04T14:02:55;55.56;42.59;76.16;;
37163;Laerm;23057;48.554;14.454;2022-08-04T14:05:30;59.56;42.53;85.12;;
37163;Laerm;23057;48.554;14.454;2022-08-04T14:08:26;51.29;42.93;63.83;;
37163;Laerm;23057;48.554;14.454;2022-08-04T14:10:57;52.91;42.65;67.87;;
37163;Laerm;23057;48.554;14.454;2022-08-04T14:13:34;52.64;42.88;70.45;;
37163;Laerm;23057;48.554;14.454;2022-08-04T14:16:20;56.74;42.98;80.27;;
37163;Laerm;23057;48.554;14.454;2022-08-04T14:19:00;49.74;42.41;70.00;;
37163;Laerm;23057;48.554;14.454;2022-08-04T14:21:35;48.35;42.35;60.02;;
37163;Laerm;23057;48.554;14.454;2022-08-04T14:24:06;52.33;42.09;68.41;;
37163;Laerm;23057;48.554;14.454;2022-08-04T14:26:37;58.73;41.96;79.96;;
37163;Laerm;23057;48.554;14.454;2022-08-04T14:29:16;54.42;42.35;71.68;;
37163;Laerm;23057;48.554;14.454;2022-08-04T14:31:48;51.67;42.03;64.06;;
37163;Laerm;23057;48.554;14.454;2022-08-04T14:34:27;51.34;42.47;65.53;;
37163;Laerm;23057;48.554;14.454;2022-08-04T14:37:07;51.27;42.65;62.94;;
37163;Laerm;23057;48.554;14.454;2022-08-04T14:39:41;53.74;43.09;69.65;;
37163;Laerm;23057;48.554;14.454;2022-08-04T14:42:13;55.57;42.65;71.86;;
37163;Laerm;23057;48.554;14.454;2022-08-04T14:44:54;52.97;43.24;69.54;;
37163;Laerm;23057;48.554;14.454;2022-08-04T14:47:45;52.31;42.65;66.45;;
37163;Laerm;23057;48.554;14.454;2022-08-04T14:50:16;55.46;42.47;77.55;;
37163;Laerm;23057;48.554;14.454;2022-08-04T14:52:47;50.89;43.04;65.87;;
37163;Laerm;23057;48.554;14.454;2022-08-04T14:55:22;55.26;43.14;69.56;;
37163;Laerm;23057;48.554;14.454;2022-08-04T14:57:53;50.18;43.14;66.48;;
37163;Laerm;23057;48.554;14.454;2022-08-04T15:00:31;55.11;43.09;69.37;;
37163;Laerm;23057;48.554;14.454;2022-08-04T15:03:07;53.28;42.71;75.04;;
37163;Laerm;23057;48.554;14.454;2022-08-04T15:05:41;53.48;42.76;67.47;;
37163;Laerm;23057;48.554;14.454;2022-08-04T15:08:13;49.10;42.35;61.62;;
37163;Laerm;23057;48.554;14.454;2022-08-04T15:10:44;50.17;42.47;64.84;;
37163;Laerm;23057;48.554;14.454;2022-08-04T15:13:15;51.24;42.71;68.44;;
37163;Laerm;23057;48.554;14.454;2022-08-04T15:15:46;54.55;43.24;72.28;;
37163;Laerm;23057;48.554;14.454;2022-08-04T15:18:17;52.79;43.14;65.50;;
37163;Laerm;23057;48.554;14.454;2022-08-04T15:20:50;52.81;42.98;70.03;;
37163;Laerm;23057;48.554;14.454;2022-08-04T15:23:21;50.05;42.09;62.58;;
37163;Laerm;23057;48.554;14.454;2022-08-04T15:25:55;52.91;40.53;68.12;;
37163;Laerm;23057;48.554;14.454;2022-08-04T15:28:32;57.47;39.21;75.93;;
37163;Laerm;23057;48.554;14.454;2022-08-04T15:31:07;49.71;40.43;62.21;;
37163;Laerm;23057;48.554;14.454;2022-08-04T15:33:39;54.83;39.08;70.46;;
37163;Laerm;23057;48.554;14.454;2022-08-04T15:36:31;50.48;39.68;71.47;;
37163;Laerm;23057;48.554;14.454;2022-08-04T15:39:29;50.47;38.81;61.90;;
37163;Laerm;23057;48.554;14.454;2022-08-04T15:42:22;51.91;38.95;65.54;;
37163;Laerm;23057;48.554;14.454;2022-08-04T15:45:20;51.29;40.23;66.17;;
37163;Laerm;23057;48.554;14.454;2022-08-04T15:59:05;67.76;41.61;82.11;;
37163;Laerm;23057;48.554;14.454;2022-08-04T16:01:36;61.42;53.44;85.04;;
37163;Laerm;23057;48.554;14.454;2022-08-04T16:04:23;68.41;52.21;79.70;;
37163;Laerm;23057;48.554;14.454;2022-08-04T16:07:04;67.00;43.44;79.41;;
37163;Laerm;23057;48.554;14.454;2022-08-04T16:09:35;53.69;40.80;78.50;;
37163;Laerm;23057;48.554;14.454;2022-08-04T16:12:06;52.32;43.14;76.69;;
37163;Laerm;23057;48.554;14.454;2022-08-04T16:14:37;57.92;40.62;80.45;;
37163;Laerm;23057;48.554;14.454;2022-08-04T16:17:16;52.81;40.63;73.83;;
37163;Laerm;23057;48.554;14.454;2022-08-04T16:20:01;52.60;40.89;73.16;;
37163;Laerm;23057;48.554;14.454;2022-08-04T16:22:39;54.19;40.33;82.62;;
37163;Laerm;23057;48.554;14.454;2022-08-04T16:25:10;52.88;41.14;69.20;;
37163;Laerm;23057;48.554;14.454;2022-08-04T16:27:43;59.07;42.35;71.12;;
37163;Laerm;23057;48.554;14.454;2022-08-04T16:30:14;74.39;68.53;79.71;;
37163;Laerm;23057;48.554;14.454;2022-08-04T16:32:46;75.21;52.44;82.52;;
37163;Laerm;23057;48.554;14.454;2022-08-04T16:35:20;52.53;45.33;63.47;;
37163;Laerm;23057;48.554;14.454;2022-08-04T16:38:09;80.15;50.44;87.41;;
37163;Laerm;23057;48.554;14.454;2022-08-04T16:40:41;74.39;47.34;83.30;;
37163;Laerm;23057;48.554;14.454;2022-08-04T16:43:17;68.72;47.28;79.98;;
37163;Laerm;23057;48.554;14.454;2022-08-04T16:45:55;76.40;64.92;81.42;;
37163;Laerm;23057;48.554;14.454;2022-08-04T16:48:33;67.12;51.01;77.21;;
37163;Laerm;23057;48.554;14.454;2022-08-04T16:51:09;67.31;52.85;92.70;;
37163;Laerm;23057;48.554;14.454;2022-08-04T16:53:44;69.85;63.49;75.04;;
37163;Laerm;23057;48.554;14.454;2022-08-04T16:56:17;67.97;53.99;76.35;;
37163;Laerm;23057;48.554;14.454;2022-08-04T16:58:48;69.24;56.65;89.79;;
37163;Laerm;23057;48.554;14.454;2022-08-04T17:01:21;74.25;55.50;81.15;;
37163;Laerm;23057;48.554;14.454;2022-08-04T17:03:53;65.04;57.05;81.45;;
37163;Laerm;23057;48.554;14.454;2022-08-04T17:06:37;62.49;40.33;76.46;;
37163;Laerm;23057;48.554;14.454;2022-08-04T17:09:16;52.22;38.95;69.31;;
37163;Laerm;23057;48.554;14.454;2022-08-04T17:11:47;54.85;38.52;72.01;;
37163;Laerm;23057;48.554;14.454;2022-08-04T17:14:27;63.49;37.32;81.53;;
37163;Laerm;23057;48.554;14.454;2022-08-04T17:17:00;57.08;37.32;77.10;;
37163;Laerm;23057;48.554;14.454;2022-08-04T17:19:31;51.76;36.91;71.64;;
37163;Laerm;23057;48.554;14.454;2022-08-04T17:22:06;50.73;36.20;66.36;;
37163;Laerm;23057;48.554;14.454;2022-08-04T17:24:39;55.94;38.32;71.13;;
37163;Laerm;23057;48.554;14.454;2022-08-04T17:27:10;61.12;37.12;77.69;;
37163;Laerm;23057;48.554;14.454;2022-08-04T17:29:41;53.69;37.52;71.64;;
37163;Laerm;23057;48.554;14.454;2022-08-04T17:32:14;51.81;37.32;70.66;;
37163;Laerm;23057;48.554;14.454;2022-08-04T17:34:52;51.96;37.52;71.09;;
37163;Laerm;23057;48.554;14.454;2022-08-04T17:37:25;47.90;36.45;65.03;;
37163;Laerm;23057;48.554;14.454;2022-08-04T17:40:13;48.69;37.12;64.96;;
37163;Laerm;23057;48.554;14.454;2022-08-04T17:42:45;51.07;39.21;68.54;;
37163;Laerm;23057;48.554;14.454;2022-08-04T17:45:16;47.84;36.69;62.63;;